Time;durP1;ratioP1;P1;durP2;ratioP2;P2;SDS_P1;SDS_P2;PMS_P1;PMS_P2;Temp;Humidity;BMP_temperature;BMP_pressure;BME280_temperature;BME280_humidity;BME280_pressure;Samples;Min_cycle;Max_cycle;Signal;HPM_P1;HPM_P2
2021/10/05 00:01:31;;;;;;;;;;;;;;;6.89;72.08;100987.36;1677205;84;21585;-70
2021/10/05 00:03:58;;;;;;;15.18;11.05;;;;;;;6.89;72.07;100980.07;1691117;84;20128;-69
2021/10/05 00:06:25;;;;;;;18.70;11.95;;;;;;;6.81;72.32;100985.73;1692472;85;21047;-70
2021/10/05 00:08:51;;;;;;;17.15;11.50;;;;;;;6.77;72.46;100983.66;1688759;85;21067;-70
2021/10/05 00:11:18;;;;;;;16.45;11.70;;;;;;;6.81;72.39;100986.25;1695121;83;21043;-69
2021/10/05 00:13:44;;;;;;;16.30;11.80;;;;;;;6.85;72.35;100980.20;1697639;83;21058;-69
2021/10/05 00:16:11;;;;;;;;;;;;;;;6.86;72.41;100978.33;1676900;84;20998;-70
2021/10/05 00:18:39;;;;;;;16.52;11.70;;;;;;;6.82;72.49;100981.16;1691348;85;20103;-70
2021/10/05 00:21:05;;;;;;;17.32;11.48;;;;;;;6.72;72.68;100987.05;1692794;85;21490;-70
2021/10/05 00:23:31;;;;;;;15.68;11.22;;;;;;;6.71;72.68;100981.31;1692971;85;21464;-70
2021/10/05 00:25:58;;;;;;;19.32;11.95;;;;;;;6.76;72.49;100979.33;1688193;84;21011;-69
2021/10/05 00:28:24;;;;;;;19.82;11.80;;;;;;;6.76;72.46;100980.67;1691047;84;21007;-69
2021/10/05 00:30:51;;;;;;;16.62;12.10;;;;;;;6.68;72.54;100979.56;1681396;84;21070;-69
2021/10/05 00:33:17;;;;;;;19.77;12.40;;;;;;;6.59;72.67;100973.56;1685162;84;21026;-69
2021/10/05 00:35:44;;;;;;;18.57;12.28;;;;;;;6.57;72.76;100987.00;1701707;82;21671;-69
2021/10/05 00:38:10;;;;;;;;;;;;;;;6.57;72.65;100993.77;1693622;84;20991;-69
2021/10/05 00:40:36;;;;;;;18.12;12.10;;;;;;;6.53;72.79;100988.48;1686047;84;20143;-70
2021/10/05 00:43:03;;;;;;;18.75;12.40;;;;;;;6.38;73.22;100985.52;1674093;85;21022;-70
2021/10/05 00:45:29;;;;;;;20.92;12.80;;;;;;;6.32;73.48;100985.55;1684278;84;21054;-69
2021/10/05 00:47:56;;;;;;;;;;;;;;;6.32;73.69;100984.20;1659655;86;20992;-69
2021/10/05 00:50:22;;;;;;;17.90;11.90;;;;;;;6.36;73.72;100986.27;1689507;84;20474;-71
2021/10/05 00:52:49;;;;;;;16.02;11.25;;;;;;;6.33;73.92;100987.22;1700679;84;21410;-72
2021/10/05 00:55:16;;;;;;;18.17;12.20;;;;;;;6.28;74.24;100982.44;1695074;83;21064;-71
2021/10/05 00:57:42;;;;;;;17.42;12.00;;;;;;;6.27;74.38;100979.97;1725577;83;21005;-71
2021/10/05 01:00:10;;;;;;;16.57;12.68;;;;;;;6.27;74.44;100986.18;1717649;83;21735;-71
2021/10/05 01:02:38;;;;;;;19.73;13.32;;;;;;;6.32;74.42;100988.25;1709273;83;21019;-70
2021/10/05 01:05:07;;;;;;;18.23;12.82;;;;;;;6.31;74.48;100991.48;1719850;82;21066;-68
2021/10/05 01:07:33;;;;;;;17.48;12.70;;;;;;;6.26;74.67;100993.17;1691224;85;21030;-69
2021/10/05 01:10:00;;;;;;;;;;;;;;;6.26;74.67;100991.30;1721098;83;21070;-68
2021/10/05 01:12:26;;;;;;;19.52;12.98;;;;;;;6.29;74.60;100992.23;1711757;83;20146;-69
2021/10/05 01:14:54;;;;;;;20.48;13.62;;;;;;;6.23;74.82;100998.49;1723128;82;21584;-68
2021/10/05 01:17:21;;;;;;;23.10;14.15;;;;;;;6.18;75.07;100992.05;1726299;83;21022;-68
2021/10/05 01:19:47;;;;;;;20.52;13.08;;;;;;;6.18;75.24;100992.05;1725717;82;21074;-68
2021/10/05 01:22:14;;;;;;;;;;;;;;;6.22;75.25;101003.59;1723470;82;21592;-69
2021/10/05 01:24:41;;;;;;;19.67;13.98;;;;;;;6.24;75.24;101001.48;1708362;83;20149;-68
2021/10/05 01:27:07;;;;;;;26.62;15.50;;;;;;;6.14;75.66;101000.27;1724952;83;21006;-68
2021/10/05 01:29:34;;;;;;;23.62;15.00;;;;;;;6.14;75.79;101000.27;1725756;83;21097;-68
2021/10/05 01:32:03;;;;;;;22.50;14.83;;;;;;;6.18;75.65;101006.40;1724727;83;21142;-68
2021/10/05 01:34:31;;;;;;;21.35;14.78;;;;;;;6.19;75.66;101006.72;1721480;82;21071;-68
2021/10/05 01:36:58;;;;;;;22.22;15.53;;;;;;;6.13;75.82;101010.25;1691330;85;21063;-69
2021/10/05 01:39:36;;;;;;;;;;;;;;;6.10;75.99;101012.55;1724842;82;21074;-68
2021/10/05 01:42:11;;;;;;;19.63;14.30;;;;;;;6.11;76.01;101010.99;1718424;83;20458;-68
2021/10/05 01:44:38;;;;;;;20.85;14.23;;;;;;;6.12;76.02;101014.53;1722943;83;21372;-68
2021/10/05 01:47:05;;;;;;;21.93;14.85;;;;;;;6.12;76.02;101015.89;1722137;83;21066;-68
2021/10/05 01:49:33;;;;;;;23.27;16.05;;;;;;;6.07;76.19;101013.80;1723466;83;21064;-68
2021/10/05 01:52:00;;;;;;;20.55;15.35;;;;;;;6.07;76.32;101015.67;1720299;83;21062;-68
2021/10/05 01:54:26;;;;;;;20.02;14.63;;;;;;;6.13;76.28;101017.01;1722487;82;21090;-68
2021/10/05 01:56:53;;;;;;;22.62;15.10;;;;;;;6.13;76.24;101021.61;1650049;85;21064;-69
2021/10/05 01:59:19;;;;;;;25.57;16.12;;;;;;;6.08;76.43;101022.75;1697867;82;21057;-68
2021/10/05 02:01:45;;;;;;;;;;;;;;;6.05;76.49;101017.26;1692688;85;21044;-69
2021/10/05 02:04:12;;;;;;;22.07;14.25;;;;;;;6.10;76.41;101020.14;1686346;83;20404;-68
2021/10/05 02:06:39;;;;;;;21.60;15.23;;;;;;;6.07;76.48;101024.62;1722077;82;20995;-72
2021/10/05 02:09:07;;;;;;;20.75;15.78;;;;;;;6.04;76.60;101029.10;1689038;83;21074;-72
2021/10/05 02:11:34;;;;;;;22.65;14.70;;;;;;;6.01;76.82;101037.64;1714071;83;21475;-71
2021/10/05 02:14:02;;;;;;;23.47;14.98;;;;;;;6.02;76.84;101033.91;1694262;83;21069;-72
2021/10/05 02:16:29;;;;;;;21.57;15.63;;;;;;;6.07;76.74;101035.95;1692564;85;21488;-72
2021/10/05 02:18:56;;;;;;;22.00;14.78;;;;;;;6.05;76.87;101043.45;1692890;83;21080;-72
2021/10/05 02:21:22;;;;;;;25.10;15.03;;;;;;;6.00;77.11;101035.45;1693422;83;21499;-72
2021/10/05 02:26:34;;;;;;;20.48;14.58;;;;;;;5.99;77.25;101047.30;1691848;83;21025;-71
2021/10/05 02:29:00;;;;;;;22.37;15.05;;;;;;;6.00;77.28;101045.42;1698045;83;21132;-71
2021/10/05 02:31:27;;;;;;;22.42;15.90;;;;;;;5.97;77.43;101049.91;1683174;83;21348;-72
2021/10/05 02:33:54;;;;;;;23.02;14.65;;;;;;;5.92;77.61;101051.88;1687853;83;21606;-72
2021/10/05 02:36:20;;;;;;;22.45;15.98;;;;;;;5.94;77.64;101050.33;1690603;83;21055;-72
2021/10/05 02:38:47;;;;;;;21.75;15.28;;;;;;;6.00;77.52;101061.64;1686955;84;21592;-72
2021/10/05 02:41:14;;;;;;;18.57;14.47;;;;;;;5.99;77.49;101053.22;1670972;85;21028;-72
2021/10/05 02:43:41;;;;;;;20.85;14.63;;;;;;;5.95;77.67;101054.70;1674855;85;21081;-71
2021/10/05 02:46:07;;;;;;;21.65;14.75;;;;;;;5.92;77.89;101057.80;1707865;83;21020;-72
2021/10/05 02:48:33;;;;;;;;;;;;;;;5.97;77.83;101066.12;1694126;85;21583;-71
2021/10/05 02:51:00;;;;;;;22.75;15.18;;;;;;;6.02;77.70;101063.64;1693095;83;20469;-72
2021/10/05 02:53:26;;;;;;;;;;;;;;;5.97;77.88;101055.31;1672387;85;21005;-71
2021/10/05 02:55:54;;;;;;;18.48;13.48;;;;;;;5.94;78.14;101055.73;1704365;83;20097;-70
2021/10/05 02:58:20;;;;;;;21.17;14.63;;;;;;;5.83;78.44;101049.06;1722589;83;21043;-72
2021/10/05 03:00:46;;;;;;;21.77;14.83;;;;;;;5.85;78.47;101051.02;1721956;83;21046;-69
2021/10/05 03:03:13;;;;;;;21.02;13.78;;;;;;;5.89;78.33;101051.47;1727644;82;21022;-69
2021/10/05 03:05:40;;;;;;;23.40;14.70;;;;;;;5.91;78.30;101048.05;1715294;82;21091;-73
2021/10/05 03:08:07;;;;;;;23.20;16.05;;;;;;;5.88;78.38;101045.77;1691027;83;21089;-73
2021/10/05 03:10:35;;;;;;;20.82;15.38;;;;;;;5.82;78.65;101046.55;1722809;83;21094;-73
2021/10/05 03:13:04;;;;;;;21.65;14.20;;;;;;;5.81;78.80;101063.83;1706560;83;21516;-73
2021/10/05 03:15:30;;;;;;;22.22;14.45;;;;;;;5.86;78.68;101051.89;1716754;83;21070;-72
2021/10/05 03:17:57;;;;;;;24.43;16.32;;;;;;;5.86;78.68;101047.83;1724094;83;21038;-72
2021/10/05 03:20:23;;;;;;;20.90;14.73;;;;;;;5.81;78.83;101047.62;1721535;82;21481;-71
2021/10/05 03:22:49;;;;;;;25.68;15.45;;;;;;;5.81;78.90;101047.62;1719981;83;21010;-70
2021/10/05 03:25:16;;;;;;;19.75;14.70;;;;;;;5.85;78.74;101051.02;1723894;83;21045;-69
2021/10/05 03:27:42;;;;;;;23.02;15.50;;;;;;;5.90;78.64;101051.78;1719673;83;21608;-70
2021/10/05 03:30:11;;;;;;;23.22;15.95;;;;;;;5.86;78.69;101060.83;1724206;83;21070;-70
2021/10/05 03:32:37;;;;;;;22.82;15.20;;;;;;;5.80;78.87;101055.41;1724141;83;21350;-71
2021/10/05 03:35:04;;;;;;;22.85;15.25;;;;;;;5.82;78.99;101062.77;1705157;83;21056;-71
2021/10/05 03:37:31;;;;;;;26.15;15.32;;;;;;;5.84;78.86;101056.14;1722684;83;21445;-72
2021/10/05 03:39:58;;;;;;;26.12;16.87;;;;;;;5.82;78.87;101058.71;1724261;83;21084;-72
2021/10/05 03:42:24;;;;;;;;;;;;;;;5.76;79.02;101061.75;1726506;83;21030;-73
2021/10/05 03:44:51;;;;;;;25.23;16.05;;;;;;;5.74;79.17;101054.89;1719898;83;20158;-71
2021/10/05 03:47:17;;;;;;;23.87;15.90;;;;;;;5.76;79.22;101058.20;1724134;83;21018;-70
2021/10/05 03:49:43;;;;;;;21.12;15.35;;;;;;;5.75;79.26;101056.02;1724117;83;21073;-71
2021/10/05 03:52:10;;;;;;;27.95;16.55;;;;;;;5.69;79.46;101054.16;1717643;83;21913;-68
2021/10/05 03:54:36;;;;;;;21.77;15.83;;;;;;;5.69;79.55;101058.21;1722205;83;21026;-70
2021/10/05 03:57:03;;;;;;;21.82;15.93;;;;;;;5.74;79.40;101053.55;1702747;83;21036;-72
2021/10/05 03:59:29;;;;;;;22.82;15.35;;;;;;;5.76;79.34;101060.39;1695612;83;21133;-69
2021/10/05 04:01:56;;;;;;;20.70;15.75;;;;;;;5.72;79.46;101058.30;1712525;83;21067;-70
2021/10/05 04:04:22;;;;;;;25.62;16.85;;;;;;;5.66;79.62;101068.60;1715625;83;21102;-71
2021/10/05 04:06:49;;;;;;;20.17;15.13;;;;;;;5.63;79.74;101064.45;1716347;83;21105;-70
2021/10/05 04:09:15;;;;;;;26.07;17.17;;;;;;;5.68;79.62;101071.91;1716978;82;21106;-72
2021/10/05 04:11:42;;;;;;;25.30;16.12;;;;;;;5.68;79.62;101061.94;1715093;83;21536;-69
2021/10/05 04:14:09;;;;;;;26.05;16.70;;;;;;;5.65;79.80;101075.88;1715919;83;21051;-72
2021/10/05 04:16:35;;;;;;;26.00;16.75;;;;;;;5.65;79.88;101077.22;1716455;83;21558;-69
2021/10/05 04:19:03;;;;;;;25.55;14.20;;;;;;;5.69;79.75;101083.05;1716715;82;21049;-69
2021/10/05 04:21:29;;;;;;;23.55;15.18;;;;;;;5.75;79.65;101080.85;1715905;83;21087;-69
2021/10/05 04:23:56;;;;;;;24.80;16.23;;;;;;;5.76;79.58;101090.63;1717295;82;21660;-72
2021/10/05 04:26:22;;;;;;;26.62;17.45;;;;;;;5.68;79.73;101087.61;1714160;83;21031;-70
2021/10/05 04:28:49;;;;;;;24.45;16.05;;;;;;;5.67;79.91;101094.59;1716625;83;21055;-70
2021/10/05 04:31:15;;;;;;;25.77;16.27;;;;;;;5.72;79.82;101089.38;1715923;83;21094;-70
2021/10/05 04:33:41;;;;;;;28.85;17.35;;;;;;;5.74;79.78;101094.87;1714302;82;21042;-70
2021/10/05 04:36:08;;;;;;;24.87;16.77;;;;;;;5.70;79.96;101104.98;1716462;83;21046;-71
2021/10/05 04:38:34;;;;;;;25.20;16.35;;;;;;;5.67;80.15;101104.05;1716610;83;21006;-71
2021/10/05 04:41:00;;;;;;;23.62;15.98;;;;;;;5.70;80.16;101101.77;1715175;83;20996;-69
2021/10/05 04:43:27;;;;;;;22.40;15.80;;;;;;;5.78;80.02;101113.70;1715215;82;21007;-71
2021/10/05 04:45:53;;;;;;;25.05;15.83;;;;;;;5.81;80.00;101107.87;1707910;83;21024;-70
2021/10/05 04:48:19;;;;;;;28.67;14.93;;;;;;;5.80;80.15;101107.58;1716216;83;21010;-70
2021/10/05 04:50:46;;;;;;;21.55;15.40;;;;;;;5.84;80.21;101110.70;1714579;83;21633;-70
2021/10/05 04:53:15;;;;;;;24.72;15.65;;;;;;;5.93;80.02;101118.41;1696199;83;21019;-71
2021/10/05 04:55:48;;;;;;;25.60;16.80;;;;;;;5.98;79.89;101118.64;1715279;82;21087;-70
2021/10/05 04:58:15;;;;;;;24.12;16.30;;;;;;;5.98;80.04;101132.16;1716579;83;20980;-71
2021/10/05 05:00:42;;;;;;;22.73;15.55;;;;;;;5.98;80.22;101129.97;1715088;82;21016;-70
2021/10/05 05:03:08;;;;;;;26.25;16.70;;;;;;;6.04;80.28;101130.98;1682025;85;21036;-71
2021/10/05 05:05:35;;;;;;;23.73;16.02;;;;;;;6.15;80.07;101135.25;1716235;82;21118;-72
2021/10/05 05:08:03;;;;;;;24.12;15.90;;;;;;;6.20;79.96;101135.44;1716156;83;21537;-72
2021/10/05 05:10:29;;;;;;;23.70;16.00;;;;;;;6.21;80.09;101141.17;1716065;82;21139;-72
2021/10/05 05:12:55;;;;;;;;;;;;;;;6.28;80.06;101135.75;1718697;83;21067;-72
2021/10/05 05:15:22;;;;;;;24.23;15.35;;;;;;;6.39;79.86;101141.36;1677455;85;20410;-72
2021/10/05 05:17:49;;;;;;;25.40;17.48;;;;;;;6.43;79.86;101137.20;1679768;85;21542;-72
2021/10/05 05:20:16;;;;;;;24.80;17.05;;;;;;;6.45;79.93;101146.44;1702633;83;21054;-69
2021/10/05 05:22:44;;;;;;;25.10;16.50;;;;;;;6.49;79.98;101146.33;1716942;83;21501;-68
2021/10/05 05:25:10;;;;;;;22.65;15.70;;;;;;;6.58;79.80;101150.50;1716421;82;21090;-68
2021/10/05 05:27:37;;;;;;;25.52;17.92;;;;;;;6.71;79.61;101147.75;1716661;83;21113;-69
2021/10/05 05:30:05;;;;;;;24.18;15.93;;;;;;;6.76;79.59;101154.72;1716034;83;21064;-68
2021/10/05 05:32:32;;;;;;;22.42;15.48;;;;;;;6.80;79.62;101155.93;1716158;83;21021;-69
2021/10/05 05:34:58;;;;;;;23.25;15.20;;;;;;;6.94;79.69;101153.48;1716447;83;21035;-69
2021/10/05 05:37:24;;;;;;;22.93;16.27;;;;;;;7.21;79.41;101156.10;1716475;83;21521;-69
2021/10/05 05:39:50;;;;;;;26.52;16.25;;;;;;;7.43;79.03;101159.65;1714691;83;21053;-69
2021/10/05 05:42:17;;;;;;;23.45;17.42;;;;;;;7.61;78.75;101157.56;1716658;83;21061;-71
2021/10/05 05:44:43;;;;;;;22.45;15.50;;;;;;;7.79;78.23;101159.02;1710626;82;21039;-69
2021/10/05 05:47:09;;;;;;;22.10;15.85;;;;;;;8.02;77.51;101152.98;1692082;85;21581;-70
2021/10/05 05:49:36;;;;;;;22.48;16.95;;;;;;;8.26;76.83;101154.03;1696685;83;21099;-69
2021/10/05 05:52:03;;;;;;;28.20;17.73;;;;;;;8.47;76.19;101166.70;1716390;83;21709;-71
2021/10/05 05:54:29;;;;;;;25.25;17.50;;;;;;;8.63;75.75;101163.95;1716246;82;21563;-68
2021/10/05 05:56:55;;;;;;;22.73;16.42;;;;;;;8.80;75.44;101169.09;1715498;83;21062;-69
2021/10/05 05:59:22;;;;;;;26.23;17.40;;;;;;;9.00;74.52;101172.92;1712497;83;21035;-72
2021/10/05 06:01:48;;;;;;;21.02;15.63;;;;;;;9.23;73.70;101174.96;1665812;86;21090;-70
2021/10/05 06:04:14;;;;;;;26.45;17.98;;;;;;;9.41;73.29;101173.58;1677620;83;21588;-70
2021/10/05 06:06:41;;;;;;;23.95;17.70;;;;;;;9.54;72.94;101173.92;1716310;83;21029;-69
2021/10/05 06:09:08;;;;;;;21.33;16.00;;;;;;;9.75;72.40;101188.36;1716209;83;21096;-71
2021/10/05 06:11:38;;;;;;;21.15;17.00;;;;;;;9.99;71.70;101177.84;1716573;83;21114;-70
2021/10/05 06:14:03;;;;;;;24.55;17.27;;;;;;;10.18;70.70;101175.39;1715955;82;21066;-71
2021/10/05 06:16:30;;;;;;;25.82;17.27;;;;;;;10.25;70.08;101185.63;1716244;83;21123;-69
2021/10/05 06:18:56;;;;;;;22.80;17.05;;;;;;;10.40;70.12;101186.54;1716688;83;21043;-71
2021/10/05 06:21:23;;;;;;;23.62;17.30;;;;;;;10.67;69.16;101178.72;1716618;83;21571;-72
2021/10/05 06:23:49;;;;;;;22.65;17.62;;;;;;;10.82;68.29;101181.80;1716585;82;21098;-71
2021/10/05 06:26:16;;;;;;;22.82;17.85;;;;;;;10.95;68.36;101186.45;1716474;83;21028;-71
2021/10/05 06:28:43;;;;;;;24.43;17.30;;;;;;;11.12;67.68;101179.75;1716869;82;21043;-71
2021/10/05 06:31:09;;;;;;;25.10;17.98;;;;;;;11.29;67.25;101182.02;1716410;83;21053;-67
2021/10/05 06:33:36;;;;;;;;;;;;;;;11.49;66.24;101180.22;1718443;83;21054;-70
2021/10/05 06:36:03;;;;;;;21.75;16.02;;;;;;;11.65;65.42;101181.35;1716509;83;20442;-70
2021/10/05 06:38:30;;;;;;;22.95;16.55;;;;;;;11.65;65.58;101181.35;1696302;83;21063;-72
2021/10/05 06:40:58;;;;;;;;;;;;;;;11.79;65.38;101178.66;1719043;83;21628;-70
2021/10/05 06:43:24;;;;;;;27.32;17.75;;;;;;;11.95;64.51;101185.49;1716483;83;20505;-71
2021/10/05 06:45:50;;;;;;;;;;;;;;;11.94;64.04;101185.73;1718816;83;21104;-69
2021/10/05 06:48:16;;;;;;;22.13;16.90;;;;;;;12.08;63.78;101188.44;1716505;83;20173;-70
2021/10/05 06:50:43;;;;;;;24.02;16.48;;;;;;;12.29;63.07;101190.44;1704720;83;21055;-70
2021/10/05 06:53:15;;;;;;;22.87;15.58;;;;;;;12.36;62.53;101200.66;1712120;83;21648;-70
2021/10/05 06:55:38;;;;;;;20.82;16.12;;;;;;;12.43;61.66;101197.22;1686198;83;21125;-70
2021/10/05 06:58:04;;;;;;;;;;;;;;;12.39;61.81;101196.09;1680940;85;20998;-69
2021/10/05 07:00:31;;;;;;;21.90;16.53;;;;;;;12.47;61.46;101201.11;1677710;84;20422;-67
2021/10/05 07:02:57;;;;;;;25.27;20.62;;;;;;;12.44;61.46;101196.16;1667776;85;21211;-69
2021/10/05 07:05:24;;;;;;;52.60;35.30;;;;;;;12.52;61.13;101201.73;1677339;84;21056;-79
2021/10/05 07:07:51;;;;;;;22.20;17.87;;;;;;;12.62;61.01;101195.06;1685370;85;21481;-73
2021/10/05 07:10:20;;;;;;;22.93;16.55;;;;;;;12.74;60.42;101199.91;1682990;85;21015;-73
2021/10/05 07:12:48;;;;;;;29.12;19.90;;;;;;;12.75;60.02;101204.84;1675811;85;21017;-69
2021/10/05 07:15:15;;;;;;;30.75;20.60;;;;;;;12.86;60.18;101206.61;1684970;84;21083;-72
2021/10/05 07:17:44;;;;;;;22.58;16.00;;;;;;;12.99;59.92;101207.64;1685060;85;21120;-74
2021/10/05 07:20:11;;;;;;;19.57;15.48;;;;;;;13.15;59.15;101207.33;1690477;83;21067;-72
2021/10/05 07:22:37;;;;;;;22.52;17.42;;;;;;;13.27;58.69;101211.61;1687427;85;21033;-71
2021/10/05 07:25:04;;;;;;;;;;;;;;;13.39;58.42;101207.39;1689585;84;21070;-76
2021/10/05 07:27:30;;;;;;;21.75;14.85;;;;;;;13.52;57.96;101211.64;1660125;85;20112;-72
2021/10/05 07:29:57;;;;;;;22.25;16.30;;;;;;;13.52;58.04;101215.20;1658949;85;21133;-71
2021/10/05 07:32:23;;;;;;;24.90;15.88;;;;;;;13.63;57.63;101221.09;1687085;85;21074;-72
2021/10/05 07:34:49;;;;;;;;;;;;;;;13.80;57.49;101230.03;1689488;84;21063;-71
2021/10/05 07:37:16;;;;;;;24.10;16.65;;;;;;;14.02;56.88;101222.32;1687228;85;20437;-71
2021/10/05 07:39:42;;;;;;;23.05;17.17;;;;;;;14.04;56.35;101227.81;1687295;85;21080;-71
2021/10/05 07:42:08;;;;;;;20.12;15.65;;;;;;;14.12;56.29;101221.88;1687146;85;21004;-71
2021/10/05 07:44:35;;;;;;;;;;;;;;;14.30;56.00;101220.67;1687750;85;21141;-75
2021/10/05 07:47:01;;;;;;;23.40;16.30;;;;;;;14.55;55.99;101218.72;1686998;85;20115;-73
2021/10/05 07:49:28;;;;;;;24.63;17.02;;;;;;;14.73;55.76;101218.31;1663510;85;21158;-79
2021/10/05 07:51:54;;;;;;;;;;;;;;;15.06;55.07;101221.24;1661131;85;21001;-75
2021/10/05 07:54:21;;;;;;;22.73;15.87;;;;;;;15.30;54.11;101216.44;1687254;85;20108;-71
2021/10/05 07:56:48;;;;;;;39.33;26.50;;;;;;;15.41;53.68;101216.77;1702491;83;21539;-74
2021/10/05 07:59:14;;;;;;;;;;;;;;;15.63;52.70;101217.98;1718953;83;21443;-75
2021/10/05 08:01:47;;;;;;;27.42;20.35;;;;;;;15.90;52.67;101222.75;1713367;83;20443;-78
2021/10/05 08:04:09;;;;;;;34.80;24.32;;;;;;;16.05;51.54;101211.52;1681167;85;21061;-73
2021/10/05 08:06:36;;;;;;;39.85;26.17;;;;;;;16.18;50.55;101210.44;1681190;85;21017;-72
2021/10/05 08:09:02;;;;;;;145.25;89.22;;;;;;;16.16;50.57;101209.86;1716622;82;21063;-77
2021/10/05 08:11:29;;;;;;;112.15;76.95;;;;;;;16.27;50.17;101217.02;1716029;83;21040;-73
2021/10/05 08:13:57;;;;;;;85.80;58.78;;;;;;;16.48;49.67;101218.39;1716422;83;21572;-76
2021/10/05 08:16:30;;;;;;;59.93;37.90;;;;;;;16.61;49.22;101212.39;1716394;83;21102;-74
2021/10/05 08:18:52;;;;;;;111.17;68.00;;;;;;;16.75;49.37;101216.23;1715926;82;21063;-76
2021/10/05 08:21:19;;;;;;;76.65;49.03;;;;;;;16.99;48.68;101214.53;1716238;83;21102;-74
2021/10/05 08:23:45;;;;;;;36.65;24.82;;;;;;;17.21;48.59;101208.70;1717312;82;21542;-71
2021/10/05 08:26:12;;;;;;;15.88;12.85;;;;;;;17.34;46.60;101206.72;1710541;83;21047;-70
2021/10/05 08:28:38;;;;;;;18.90;13.30;;;;;;;17.26;46.51;101205.91;1711928;82;21047;-75
2021/10/05 08:31:05;;;;;;;15.98;12.00;;;;;;;17.29;46.89;101209.48;1693703;84;21071;-72
2021/10/05 08:33:31;;;;;;;17.67;13.30;;;;;;;17.48;46.49;101217.95;1711699;82;21051;-72
2021/10/05 08:35:58;;;;;;;20.95;14.93;;;;;;;17.58;46.77;101208.29;1715398;83;21023;-70
2021/10/05 08:38:25;;;;;;;17.98;12.58;;;;;;;17.86;46.87;101211.72;1716677;83;21513;-73
2021/10/05 08:40:53;;;;;;;18.02;13.10;;;;;;;18.12;45.49;101217.91;1716676;83;21003;-76
2021/10/05 08:43:23;;;;;;;16.00;12.45;;;;;;;18.20;44.92;101220.88;1716816;83;21026;-76
2021/10/05 08:45:49;;;;;;;16.50;12.30;;;;;;;18.29;44.77;101212.27;1715967;83;21063;-76
2021/10/05 08:48:16;;;;;;;24.37;17.87;;;;;;;18.45;44.38;101209.39;1713686;83;21097;-78
2021/10/05 08:50:43;;;;;;;17.42;13.00;;;;;;;18.66;43.66;101215.03;1716836;83;21063;-81
2021/10/05 08:53:09;;;;;;;15.18;11.75;;;;;;;18.79;43.37;101211.03;1695694;83;21102;-72
2021/10/05 08:55:37;;;;;;;16.10;13.43;;;;;;;18.79;42.39;101206.89;1710338;83;21172;-73
2021/10/05 08:58:04;;;;;;;17.57;12.53;;;;;;;18.80;42.79;101207.72;1718147;82;21023;-76
2021/10/05 09:00:32;;;;;;;14.10;10.93;;;;;;;18.94;42.32;101210.61;1716502;83;21040;-79
2021/10/05 09:02:58;;;;;;;14.23;11.33;;;;;;;19.04;42.22;101217.41;1707258;83;21968;-81
2021/10/05 09:05:25;;;;;;;31.65;20.40;;;;;;;19.17;42.53;101211.17;1703992;83;21020;-78
2021/10/05 09:07:54;;;;;;;17.70;13.68;;;;;;;19.30;41.66;101209.11;1710207;83;21054;-73
2021/10/05 09:11:05;;;;;;;68.17;37.75;;;;;;;19.46;41.50;101205.06;1819420;79;22799;-66
2021/10/05 09:13:36;;;;;;;35.85;24.05;;;;;;;19.49;41.14;101209.16;1782873;80;21042;-68
2021/10/05 09:16:05;;;;;;;76.10;44.90;;;;;;;19.56;40.84;101211.01;1746859;81;21465;-66
2021/10/05 09:18:31;;;;;;;18.82;14.18;;;;;;;19.62;40.29;101205.70;1731633;80;21029;-66
2021/10/05 09:20:57;;;;;;;18.50;13.15;;;;;;;19.53;40.00;101203.32;1761098;81;21045;-67
2021/10/05 09:23:24;;;;;;;42.10;27.73;;;;;;;19.45;39.70;101206.76;1761455;80;21039;-67
2021/10/05 09:25:53;;;;;;;14.20;11.25;;;;;;;19.37;40.09;101204.06;1760361;81;20985;-67
2021/10/05 09:28:27;;;;;;;13.85;10.70;;;;;;;19.35;40.12;101206.27;1759585;80;21002;-67
2021/10/05 09:31:05;;;;;;;17.57;11.00;;;;;;;19.35;39.87;101205.72;1748680;81;20999;-66
2021/10/05 09:33:32;;;;;;;42.27;29.80;;;;;;;19.29;39.94;101204.14;1754387;81;21031;-66
2021/10/05 09:35:58;;;;;;;15.48;9.93;;;;;;;19.11;39.78;101204.08;1750381;81;20982;-66
2021/10/05 09:38:28;;;;;;;23.20;17.45;;;;;;;18.89;40.58;101204.58;1759021;80;21471;-66
2021/10/05 09:41:04;;;;;;;12.50;9.30;;;;;;;18.72;40.67;101210.55;1752044;81;21024;-66
2021/10/05 09:43:30;;;;;;;11.40;9.13;;;;;;;18.40;41.06;101211.62;1740538;80;20990;-65
2021/10/05 09:46:14;;;;;;;11.73;9.33;;;;;;;18.02;41.32;101211.08;1761561;81;21026;-65
2021/10/05 09:48:42;;;;;;;11.75;10.03;;;;;;;17.66;42.22;101213.22;1752194;81;21093;-67
2021/10/05 09:51:22;;;;;;;12.93;10.25;;;;;;;17.26;42.61;101216.92;1738679;81;21022;-66
2021/10/05 09:53:51;;;;;;;12.30;9.80;;;;;;;16.92;43.76;101215.38;1727900;82;21111;-67
2021/10/05 09:56:20;;;;;;;16.50;10.53;;;;;;;16.57;45.07;101219.00;1738400;81;20923;-67
2021/10/05 09:58:46;;;;;;;11.38;8.50;;;;;;;16.37;45.33;101230.77;1757678;80;21026;-66
2021/10/05 10:01:12;;;;;;;;;;;;;;;16.15;45.14;101217.02;1762984;81;21662;-67
2021/10/05 10:03:39;;;;;;;17.07;12.28;;;;;;;15.92;45.68;101219.72;1761243;80;20110;-67
2021/10/05 10:06:06;;;;;;;32.10;22.95;;;;;;;15.63;46.34;101219.36;1761287;81;21490;-67
2021/10/05 10:08:34;;;;;;;13.98;9.75;;;;;;;15.54;46.25;101214.13;1730897;80;21004;-67
2021/10/05 10:11:00;;;;;;;26.12;14.98;;;;;;;15.50;47.08;101213.00;1759661;81;20990;-65
2021/10/05 10:13:27;;;;;;;29.50;15.15;;;;;;;15.49;47.20;101212.72;1759428;80;21380;-67
2021/10/05 10:15:56;;;;;;;14.93;10.13;;;;;;;15.47;47.04;101207.20;1761452;81;21059;-66
2021/10/05 10:18:23;;;;;;;15.13;10.63;;;;;;;15.44;47.37;101203.88;1761688;80;20931;-67
2021/10/05 10:21:06;;;;;;;15.15;10.65;;;;;;;15.47;47.21;101207.20;1761258;81;21445;-67
2021/10/05 10:23:34;;;;;;;12.25;8.93;;;;;;;15.45;47.38;101200.05;1760031;81;20995;-68
2021/10/05 10:26:11;;;;;;;22.25;14.80;;;;;;;15.35;47.35;101192.32;1760943;81;21035;-67
2021/10/05 10:28:42;;;;;;;16.25;11.28;;;;;;;15.29;47.95;101193.41;1759948;80;21111;-66
2021/10/05 10:31:30;;;;;;;17.00;9.40;;;;;;;15.27;48.03;101174.45;1760781;81;21036;-67
2021/10/05 10:33:57;;;;;;;9.65;6.87;;;;;;;15.27;47.53;101177.20;1752429;80;21630;-67
2021/10/05 10:36:38;;;;;;;;;;;;;;;15.26;45.55;101174.20;1763344;81;21047;-67
2021/10/05 10:39:13;;;;;;;14.55;9.93;;;;;;;15.24;46.24;101174.16;1760119;80;20450;-66
2021/10/05 10:41:43;;;;;;;12.13;7.55;;;;;;;15.21;45.83;101171.96;1758269;81;20974;-66
2021/10/05 10:44:12;;;;;;;12.03;7.30;;;;;;;15.20;45.46;101169.77;1758925;80;21129;-67
2021/10/05 10:46:42;;;;;;;16.65;9.70;;;;;;;15.18;45.86;101173.33;1731078;83;21001;-67
2021/10/05 10:49:16;;;;;;;10.53;7.30;;;;;;;15.20;46.73;101162.91;1739119;80;21078;-66
2021/10/05 10:51:46;;;;;;;8.88;6.97;;;;;;;15.29;46.12;101168.71;1760255;81;21016;-67
2021/10/05 10:54:18;;;;;;;8.60;6.85;;;;;;;15.37;45.20;101171.75;1760669;80;21087;-67
2021/10/05 10:56:46;;;;;;;10.53;6.78;;;;;;;15.35;45.31;101171.75;1761027;81;21051;-67
2021/10/05 10:59:14;;;;;;;14.28;6.78;;;;;;;15.28;45.36;101172.54;1760594;80;21037;-67
2021/10/05 11:01:52;;;;;;;8.55;6.05;;;;;;;15.22;44.96;101171.70;1761347;81;21018;-67
2021/10/05 11:04:20;;;;;;;17.55;11.88;;;;;;;15.18;45.10;101165.64;1760907;80;21595;-67
2021/10/05 11:06:52;;;;;;;13.43;9.03;;;;;;;15.18;45.42;101165.64;1761140;81;21012;-67
2021/10/05 11:09:19;;;;;;;11.08;8.33;;;;;;;15.20;45.95;101162.91;1759983;80;21666;-67
2021/10/05 11:11:49;;;;;;;9.98;7.62;;;;;;;15.25;46.00;101155.25;1747597;82;21009;-67
2021/10/05 11:14:23;;;;;;;8.73;5.78;;;;;;;15.30;45.71;101156.08;1747622;81;21135;-68
2021/10/05 11:16:53;;;;;;;9.83;7.20;;;;;;;15.31;45.14;101138.53;1747508;82;21048;-68
2021/10/05 11:19:20;;;;;;;16.15;10.35;;;;;;;15.35;45.86;101142.94;1745332;81;21080;-67
2021/10/05 11:21:48;;;;;;;9.53;6.90;;;;;;;15.41;45.62;101139.94;1747777;82;21060;-67
2021/10/05 11:24:16;;;;;;;10.20;6.85;;;;;;;15.48;44.25;101137.50;1747686;81;21033;-67
2021/10/05 11:26:45;;;;;;;10.50;6.62;;;;;;;15.54;44.67;101136.45;1747907;82;20984;-67